Time;durP1;ratioP1;P1;durP2;ratioP2;P2;SDS_P1;SDS_P2;PMS_P1;PMS_P2;Temp;Humidity;BMP_temperature;BMP_pressure;BME280_temperature;BME280_humidity;BME280_pressure;Samples;Min_cycle;Max_cycle;Signal;HPM_P1;HPM_P2
2021/08/12 00:04:18;;;;;;;;;;;;;;;17.65;67.01;98691.19;1726467;81;21027;-86
2021/08/12 00:06:44;;;;;;;;;;;;;;;17.67;67.14;98698.51;1716570;82;21998;-86
2021/08/12 00:09:11;;;;;;;;;;;;;;;17.71;67.21;98699.39;1718306;83;26116;-86
2021/08/12 00:11:39;;;;;;;;;;;;;;;17.68;67.31;98697.02;1735492;81;24016;-85
2021/08/12 00:14:05;;;;;;;;;;;;;;;17.67;67.40;98698.02;1744443;81;20287;-86
2021/08/12 00:16:43;;;;;;;;;;;;;;;17.72;67.48;98701.06;1742013;82;25060;-85
2021/08/12 00:19:13;;;;;;;;;;;;;;;17.74;67.56;98705.70;1737954;82;21955;-86
2021/08/12 00:21:48;;;;;;;;;;;;;;;17.76;67.68;98709.05;1740120;82;26093;-86
2021/08/12 00:24:21;;;;;;;;;;;;;;;17.77;67.78;98705.43;1738036;81;24332;-86
2021/08/12 00:26:53;;;;;;;;;;;;;;;17.79;67.92;98711.88;1741947;82;20217;-86
2021/08/12 00:29:20;;;;;;;;;;;;;;;17.81;68.04;98713.91;1735247;82;25044;-86
2021/08/12 00:31:47;;;;;;;;;;;;;;;17.78;68.15;98715.02;1752895;79;22001;-85
2021/08/12 00:34:13;;;;;;;;;;;;;;;17.80;68.24;98717.52;1758954;79;26015;-85
2021/08/12 00:36:41;;;;;;;;;;;;;;;17.79;68.33;98722.47;1762059;81;20508;-85
2021/08/12 00:39:07;;;;;;;;;;;;;;;17.79;68.41;98725.11;1735402;81;20242;-86
2021/08/12 00:41:35;;;;;;;;;;;;;;;17.81;68.47;98723.17;1730725;81;20247;-86
2021/08/12 00:44:01;;;;;;;;;;;;;;;17.74;68.52;98715.45;1754075;80;21989;-85
2021/08/12 00:46:26;;;;;;;;;;;;;;;17.51;68.54;98719.74;1758268;80;21031;-87
2021/08/12 00:48:52;;;;;;;;;;;;;;;17.38;68.60;98718.40;1730412;81;20268;-87
2021/08/12 00:51:18;;;;;;;;;;;;;;;17.29;68.66;98720.07;1741090;81;20238;-85
2021/08/12 00:53:44;;;;;;;;;;;;;;;17.21;68.76;98705.90;1758231;79;20724;-85
2021/08/12 00:56:14;;;;;;;;;;;;;;;17.06;68.87;98707.67;1763421;81;20244;-85
2021/08/12 00:58:39;;;;;;;;;;;;;;;16.95;68.94;98709.14;1750875;81;26013;-85
2021/08/12 01:01:05;;;;;;;;;;;;;;;16.88;69.04;98705.87;1752517;81;20455;-86
2021/08/12 01:03:34;;;;;;;;;;;;;;;16.81;69.19;98701.62;1755110;80;20791;-85
2021/08/12 01:06:03;;;;;;;;;;;;;;;16.73;69.32;98699.69;1755350;81;25622;-85
2021/08/12 01:08:36;;;;;;;;;;;;;;;16.81;69.46;98705.59;1753594;80;22324;-85
2021/08/12 01:11:21;;;;;;;;;;;;;;;17.00;69.63;98707.39;1753119;80;26862;-85
2021/08/12 01:13:52;;;;;;;;;;;;;;;17.13;69.74;98708.75;1763858;79;24474;-85
2021/08/12 01:16:20;;;;;;;;;;;;;;;17.22;69.83;98707.09;1714690;81;20188;-86
2021/08/12 01:18:48;;;;;;;;;;;;;;;17.29;69.84;98708.16;1760915;79;24966;-85
2021/08/12 01:21:22;;;;;;;;;;;;;;;17.34;69.88;98710.41;1755379;79;22848;-86
2021/08/12 01:23:48;;;;;;;;;;;;;;;17.39;69.89;98710.81;1751573;80;26769;-85
2021/08/12 01:26:18;;;;;;;;;;;;;;;17.42;69.91;98709.19;1757384;79;20295;-85
2021/08/12 01:28:47;;;;;;;;;;;;;;;17.42;69.91;98713.16;1729806;81;20354;-85
2021/08/12 01:31:18;;;;;;;;;;;;;;;17.39;69.92;98716.11;1754765;80;25066;-85
2021/08/12 01:34:05;;;;;;;;;;;;;;;17.39;69.94;98712.14;1799936;77;22051;-85
2021/08/12 01:36:34;;;;;;;;;;;;;;;17.37;69.96;98715.41;1764580;79;26598;-85
2021/08/12 01:39:03;;;;;;;;;;;;;;;17.25;69.96;98720.50;1766133;79;24446;-85
2021/08/12 01:41:29;;;;;;;;;;;;;;;17.17;70.00;98724.36;1729638;81;20316;-85
2021/08/12 01:43:57;;;;;;;;;;;;;;;17.02;70.03;98718.68;1732451;81;25079;-85
2021/08/12 01:46:25;;;;;;;;;;;;;;;16.94;70.08;98720.69;1730252;81;22847;-85
2021/08/12 01:48:53;;;;;;;;;;;;;;;16.90;70.13;98720.63;1734183;81;26061;-85
2021/08/12 01:51:24;;;;;;;;;;;;;;;16.94;70.22;98722.50;1729018;81;24402;-85
2021/08/12 01:53:51;;;;;;;;;;;;;;;16.88;70.26;98721.25;1728682;81;20234;-88
2021/08/12 01:56:17;;;;;;;;;;;;;;;16.81;70.31;98717.96;1733632;81;25087;-87
2021/08/12 01:58:43;;;;;;;;;;;;;;;16.77;70.38;98716.09;1730488;81;21955;-87
2021/08/12 02:01:10;;;;;;;;;;;;;;;16.66;70.43;98726.32;1759268;79;25944;-87
2021/08/12 02:03:36;;;;;;;;;;;;;;;16.57;70.48;98723.64;1733740;81;24440;-87
2021/08/12 02:06:03;;;;;;;;;;;;;;;16.51;70.58;98725.52;1739924;81;20455;-88
2021/08/12 02:08:30;;;;;;;;;;;;;;;16.47;70.72;98724.12;1740150;81;25030;-88
2021/08/12 02:10:56;;;;;;;;;;;;;;;16.44;70.85;98727.02;1738872;81;22069;-88
2021/08/12 02:13:25;;;;;;;;;;;;;;;16.46;71.00;98727.73;1738837;81;26125;-88
2021/08/12 02:15:51;;;;;;;;;;;;;;;16.46;71.14;98725.92;1736769;81;24494;-88
2021/08/12 02:18:17;;;;;;;;;;;;;;;16.48;71.24;98732.38;1734579;81;20220;-88
2021/08/12 02:20:46;;;;;;;;;;;;;;;16.46;71.35;98731.21;1736023;81;25101;-87
2021/08/12 02:23:14;;;;;;;;;;;;;;;16.44;71.43;98729.66;1733933;81;22012;-87
2021/08/12 02:25:46;;;;;;;;;;;;;;;16.43;71.51;98731.47;1737108;81;26063;-87
2021/08/12 02:28:13;;;;;;;;;;;;;;;16.55;71.61;98727.73;1736847;81;24554;-88
2021/08/12 02:30:43;;;;;;;;;;;;;;;16.62;71.71;98722.29;1735459;81;20807;-87
2021/08/12 02:33:12;;;;;;;;;;;;;;;16.73;71.79;98729.25;1737822;82;24919;-87
2021/08/12 02:35:38;;;;;;;;;;;;;;;16.85;71.86;98719.38;1733314;81;21986;-88
2021/08/12 02:38:05;;;;;;;;;;;;;;;16.87;71.89;98716.92;1739076;82;26060;-87
2021/08/12 02:40:32;;;;;;;;;;;;;;;16.78;71.87;98712.97;1716628;82;24572;-87
2021/08/12 02:43:01;;;;;;;;;;;;;;;16.70;71.86;98713.66;1728322;82;20210;-88
2021/08/12 02:45:29;;;;;;;;;;;;;;;16.67;71.88;98717.91;1734878;81;25073;-88
2021/08/12 02:47:55;;;;;;;;;;;;;;;16.66;71.91;98721.03;1735836;81;21998;-87
2021/08/12 02:50:25;;;;;;;;;;;;;;;16.61;71.92;98717.13;1738810;82;26030;-87
2021/08/12 02:52:57;;;;;;;;;;;;;;;16.52;71.91;98713.49;1733099;81;25239;-88
2021/08/12 02:55:25;;;;;;;;;;;;;;;16.59;71.96;98714.63;1731594;81;20241;-88
2021/08/12 02:57:51;;;;;;;;;;;;;;;16.69;72.05;98714.66;1739147;82;25085;-87
2021/08/12 03:00:19;;;;;;;;;;;;;;;16.79;72.08;98712.00;1737659;81;20911;-87
2021/08/12 03:02:48;;;;;;;;;;;;;;;16.77;72.10;98709.97;1734197;80;26535;-88
2021/08/12 03:05:19;;;;;;;;;;;;;;;16.68;72.08;98716.45;1739642;81;25246;-86
2021/08/12 03:07:52;;;;;;;;;;;;;;;16.56;72.05;98720.65;1739924;81;20292;-86
2021/08/12 03:10:20;;;;;;;;;;;;;;;16.47;72.05;98718.84;1737118;81;25208;-86
2021/08/12 03:12:51;;;;;;;;;;;;;;;16.46;72.09;98723.28;1734823;81;22036;-86
2021/08/12 03:15:23;;;;;;;;;;;;;;;16.53;72.14;98724.90;1733652;81;26082;-86
2021/08/12 03:17:53;;;;;;;;;;;;;;;16.63;72.18;98724.45;1716547;82;24455;-86
2021/08/12 03:20:22;;;;;;;;;;;;;;;16.68;72.20;98728.34;1736017;82;20461;-85
2021/08/12 03:22:48;;;;;;;;;;;;;;;16.68;72.22;98724.87;1731278;81;25154;-84
2021/08/12 03:25:14;;;;;;;;;;;;;;;16.71;72.21;98728.06;1735115;82;21904;-84
2021/08/12 03:27:40;;;;;;;;;;;;;;;16.68;72.20;98730.16;1737870;81;20885;-85
2021/08/12 03:30:06;;;;;;;;;;;;;;;16.57;72.21;98729.77;1737961;82;24396;-85
2021/08/12 03:32:33;;;;;;;;;;;;;;;16.40;72.17;98737.03;1725640;81;20471;-85
2021/08/12 03:34:59;;;;;;;;;;;;;;;16.28;72.18;98736.31;1721643;82;25141;-85
2021/08/12 03:37:25;;;;;;;;;;;;;;;16.33;72.21;98738.05;1721544;82;22049;-85
2021/08/12 03:39:51;;;;;;;;;;;;;;;16.43;72.29;98734.59;1728705;82;21132;-84
2021/08/12 03:42:17;;;;;;;;;;;;;;;16.48;72.30;98738.49;1723252;82;20287;-84
2021/08/12 03:44:44;;;;;;;;;;;;;;;16.52;72.33;98747.00;1722334;82;20302;-85
2021/08/12 03:47:10;;;;;;;;;;;;;;;16.55;72.33;98746.23;1726797;82;24953;-85
2021/08/12 03:49:36;;;;;;;;;;;;;;;16.55;72.36;98750.20;1721920;82;22096;-84
2021/08/12 03:52:03;;;;;;;;;;;;;;;16.59;72.37;98750.30;1720338;82;21058;-85
2021/08/12 03:54:29;;;;;;;;;;;;;;;16.61;72.39;98758.94;1722979;82;24464;-85
2021/08/12 03:56:55;;;;;;;;;;;;;;;16.60;72.41;98760.38;1732107;82;20340;-86
2021/08/12 03:59:21;;;;;;;;;;;;;;;16.58;72.41;98757.84;1721040;82;20326;-85
2021/08/12 04:01:48;;;;;;;;;;;;;;;16.58;72.43;98754.38;1724158;82;22054;-85
2021/08/12 04:04:14;;;;;;;;;;;;;;;16.57;72.45;98757.52;1722252;82;25991;-86
2021/08/12 04:06:40;;;;;;;;;;;;;;;16.49;72.46;98756.50;1722878;82;24375;-86
2021/08/12 04:09:07;;;;;;;;;;;;;;;16.45;72.47;98754.62;1720191;82;20303;-86
2021/08/12 04:11:32;;;;;;;;;;;;;;;16.41;72.52;98761.65;1724934;82;20224;-87
2021/08/12 04:13:58;;;;;;;;;;;;;;;16.40;72.55;98765.25;1721266;82;21708;-85
2021/08/12 04:16:28;;;;;;;;;;;;;;;16.38;72.59;98760.58;1724465;82;21304;-85
2021/08/12 04:18:53;;;;;;;;;;;;;;;16.37;72.65;98766.83;1727844;82;24452;-85
2021/08/12 04:21:24;;;;;;;;;;;;;;;16.28;72.66;98770.64;1725472;82;32727;-85
2021/08/12 04:23:50;;;;;;;;;;;;;;;16.33;72.72;98767.11;1727375;82;25157;-85
2021/08/12 04:26:27;;;;;;;;;;;;;;;16.45;72.77;98759.08;1722440;82;20331;-85
2021/08/12 04:28:49;;;;;;;;;;;;;;;16.53;72.84;98767.17;1723907;82;26149;-85
2021/08/12 04:31:15;;;;;;;;;;;;;;;16.57;72.87;98769.41;1723351;82;21774;-85
2021/08/12 04:33:41;;;;;;;;;;;;;;;16.60;72.91;98761.22;1732487;82;20276;-85
2021/08/12 04:36:07;;;;;;;;;;;;;;;16.55;72.93;98760.77;1728829;82;20227;-85
2021/08/12 04:38:33;;;;;;;;;;;;;;;16.58;72.95;98762.31;1731502;82;20915;-85
2021/08/12 04:41:01;;;;;;;;;;;;;;;16.59;72.97;98760.86;1732690;82;20962;-86
2021/08/12 04:43:27;;;;;;;;;;;;;;;16.63;73.01;98758.32;1730401;82;24582;-86
2021/08/12 04:45:53;;;;;;;;;;;;;;;16.66;73.09;98756.71;1728650;82;20248;-88
2021/08/12 04:48:19;;;;;;;;;;;;;;;16.68;73.12;98757.42;1733184;82;20716;-88
2021/08/12 04:50:49;;;;;;;;;;;;;;;16.67;73.18;98757.55;1711425;82;23514;-87
2021/08/12 04:53:15;;;;;;;;;;;;;;;16.61;73.23;98763.38;1733170;82;26034;-87
2021/08/12 04:55:41;;;;;;;;;;;;;;;16.56;73.27;98769.53;1732551;82;25091;-87
2021/08/12 04:58:07;;;;;;;;;;;;;;;16.52;73.32;98772.10;1733094;82;20843;-87
2021/08/12 05:00:34;;;;;;;;;;;;;;;16.56;73.40;98778.30;1732255;82;24940;-87
2021/08/12 05:03:00;;;;;;;;;;;;;;;16.72;73.49;98776.47;1733914;82;22043;-87
2021/08/12 05:05:28;;;;;;;;;;;;;;;16.77;73.57;98772.92;1733720;82;26142;-87
2021/08/12 05:07:54;;;;;;;;;;;;;;;16.79;73.62;98771.47;1732763;82;24533;-87
2021/08/12 05:10:20;;;;;;;;;;;;;;;16.91;73.67;98771.70;1731140;82;20477;-87
2021/08/12 05:12:46;;;;;;;;;;;;;;;17.02;73.70;98768.41;1730807;82;20241;-87
2021/08/12 05:15:12;;;;;;;;;;;;;;;17.17;73.76;98776.77;1732658;82;22028;-87
2021/08/12 05:17:38;;;;;;;;;;;;;;;17.32;73.79;98779.81;1732468;82;21104;-88
2021/08/12 05:20:10;;;;;;;;;;;;;;;17.43;73.82;98777.85;1732392;82;20862;-87
2021/08/12 05:22:39;;;;;;;;;;;;;;;17.43;73.81;98767.27;1731159;81;20226;-87
2021/08/12 05:25:12;;;;;;;;;;;;;;;17.55;73.83;98775.88;1729331;82;25769;-86
2021/08/12 05:27:38;;;;;;;;;;;;;;;17.58;73.82;98775.09;1731334;81;22028;-86
2021/08/12 05:30:08;;;;;;;;;;;;;;;17.55;73.82;98773.23;1735540;82;21502;-86
2021/08/12 05:32:34;;;;;;;;;;;;;;;17.60;73.85;98778.97;1731669;82;24530;-85
2021/08/12 05:35:00;;;;;;;;;;;;;;;17.70;73.87;98779.77;1737083;82;20391;-85
2021/08/12 05:37:29;;;;;;;;;;;;;;;17.77;73.87;98788.82;1734636;82;20894;-85
2021/08/12 05:39:55;;;;;;;;;;;;;;;17.86;73.88;98785.30;1704032;84;22071;-85
2021/08/12 05:42:20;;;;;;;;;;;;;;;17.91;73.92;98784.38;1732998;82;20929;-85
2021/08/12 05:44:47;;;;;;;;;;;;;;;17.98;73.92;98792.09;1736887;82;24447;-84
2021/08/12 05:47:13;;;;;;;;;;;;;;;18.04;73.95;98793.81;1737496;82;20242;-84
2021/08/12 05:49:39;;;;;;;;;;;;;;;18.07;73.97;98794.84;1739323;82;20226;-85
2021/08/12 05:52:05;;;;;;;;;;;;;;;18.09;74.00;98799.02;1733934;82;20906;-84
2021/08/12 05:54:31;;;;;;;;;;;;;;;18.14;74.01;98802.55;1704097;84;26026;-84
2021/08/12 05:56:58;;;;;;;;;;;;;;;18.16;74.01;98801.45;1735545;81;24455;-86
2021/08/12 05:59:23;;;;;;;;;;;;;;;18.20;74.04;98809.44;1739437;82;20229;-86
2021/08/12 06:01:49;;;;;;;;;;;;;;;18.24;74.04;98813.45;1737278;82;20809;-86
2021/08/12 06:04:15;;;;;;;;;;;;;;;18.20;74.03;98814.73;1736463;81;20877;-86
2021/08/12 06:06:45;;;;;;;;;;;;;;;18.24;74.02;98813.45;1730396;81;26249;-86
2021/08/12 06:09:11;;;;;;;;;;;;;;;18.32;74.01;98816.71;1733316;81;24442;-86
2021/08/12 06:11:37;;;;;;;;;;;;;;;18.39;74.04;98812.47;1737886;82;20263;-86
2021/08/12 06:14:03;;;;;;;;;;;;;;;18.47;73.99;98812.59;1734205;81;24930;-86
2021/08/12 06:16:29;;;;;;;;;;;;;;;18.53;73.97;98812.48;1737686;81;22001;-86
2021/08/12 06:18:55;;;;;;;;;;;;;;;18.61;73.92;98817.41;1740023;82;25960;-86
2021/08/12 06:21:23;;;;;;;;;;;;;;;18.64;73.88;98819.78;1735432;81;24492;-86
2021/08/12 06:23:52;;;;;;;;;;;;;;;18.69;73.82;98827.28;1737510;81;20243;-86
2021/08/12 06:26:25;;;;;;;;;;;;;;;18.74;73.75;98822.37;1737612;81;25689;-86
2021/08/12 06:28:52;;;;;;;;;;;;;;;18.76;73.76;98823.87;1736902;81;20362;-86
2021/08/12 06:31:19;;;;;;;;;;;;;;;18.82;73.73;98820.31;1736609;81;26019;-86
2021/08/12 06:33:50;;;;;;;;;;;;;;;18.88;73.71;98819.19;1736416;81;24415;-86
2021/08/12 06:36:19;;;;;;;;;;;;;;;18.93;73.62;98821.42;1739798;82;20354;-86
2021/08/12 06:38:45;;;;;;;;;;;;;;;18.95;73.51;98815.45;1735896;81;25139;-86
2021/08/12 06:41:11;;;;;;;;;;;;;;;18.96;73.40;98825.09;1737388;82;20978;-86
2021/08/12 06:43:40;;;;;;;;;;;;;;;18.97;73.30;98822.30;1730989;81;25992;-86
2021/08/12 06:46:07;;;;;;;;;;;;;;;19.04;73.23;98822.50;1736968;81;25350;-86
2021/08/12 06:48:36;;;;;;;;;;;;;;;19.03;73.11;98820.37;1738183;81;20241;-86
2021/08/12 06:51:02;;;;;;;;;;;;;;;18.96;72.92;98823.27;1739511;82;24951;-86
2021/08/12 06:53:28;;;;;;;;;;;;;;;18.99;72.77;98818.14;1736139;81;21912;-86
2021/08/12 06:55:54;;;;;;;;;;;;;;;19.05;72.59;98822.84;1736832;82;21169;-86
2021/08/12 06:58:20;;;;;;;;;;;;;;;19.07;72.37;98827.52;1738231;81;24482;-86
2021/08/12 07:00:46;;;;;;;;;;;;;;;19.13;72.22;98826.92;1734116;81;20305;-86
2021/08/12 07:03:14;;;;;;;;;;;;;;;19.14;72.08;98825.94;1739560;81;25594;-86
2021/08/12 07:05:40;;;;;;;;;;;;;;;19.18;72.00;98824.16;1738794;81;21962;-86
2021/08/12 07:08:08;;;;;;;;;;;;;;;19.13;71.91;98829.08;1732864;81;25968;-86
2021/08/12 07:10:43;;;;;;;;;;;;;;;19.09;71.76;98829.02;1737503;81;25323;-86
2021/08/12 07:13:09;;;;;;;;;;;;;;;19.15;71.71;98827.58;1733903;82;20589;-87
2021/08/12 07:15:35;;;;;;;;;;;;;;;19.33;71.73;98832.41;1737289;81;24945;-87
2021/08/12 07:18:01;;;;;;;;;;;;;;;19.54;71.76;98828.13;1732811;82;22089;-87
2021/08/12 07:20:32;;;;;;;;;;;;;;;19.66;71.75;98830.88;1737005;81;20776;-86
2021/08/12 07:22:58;;;;;;;;;;;;;;;19.61;71.55;98832.67;1735375;81;24474;-87
2021/08/12 07:25:24;;;;;;;;;;;;;;;19.54;71.29;98828.96;1736963;81;20372;-86
2021/08/12 07:27:50;;;;;;;;;;;;;;;19.55;71.13;98831.96;1739653;82;24939;-86
2021/08/12 07:30:16;;;;;;;;;;;;;;;19.58;70.96;98832.16;1735104;82;21978;-86
2021/08/12 07:32:43;;;;;;;;;;;;;;;19.58;70.80;98829.50;1732699;82;26039;-86
2021/08/12 07:35:11;;;;;;;;;;;;;;;19.58;70.66;98830.31;1728837;82;24567;-87
2021/08/12 07:37:37;;;;;;;;;;;;;;;19.69;70.54;98832.41;1723621;82;20260;-87
2021/08/12 07:40:06;;;;;;;;;;;;;;;19.82;70.50;98832.81;1724335;82;25078;-86
2021/08/12 07:42:33;;;;;;;;;;;;;;;19.92;70.41;98840.18;1725452;82;21991;-86
2021/08/12 07:45:02;;;;;;;;;;;;;;;20.00;70.30;98843.75;1727867;82;26060;-86
2021/08/12 07:47:29;;;;;;;;;;;;;;;20.14;70.21;98839.66;1725142;82;24282;-86
2021/08/12 07:49:58;;;;;;;;;;;;;;;20.16;69.96;98834.20;1724773;82;20304;-85
2021/08/12 07:52:26;;;;;;;;;;;;;;;20.26;69.81;98834.41;1726162;82;25174;-85
2021/08/12 07:54:52;;;;;;;;;;;;;;;20.30;69.62;98841.56;1730545;82;22018;-85
2021/08/12 07:57:18;;;;;;;;;;;;;;;20.39;69.48;98838.84;1720373;82;25936;-85
2021/08/12 07:59:46;;;;;;;;;;;;;;;20.55;69.28;98849.20;1723512;82;25039;-85
2021/08/12 08:02:12;;;;;;;;;;;;;;;20.65;69.13;98857.89;1724419;82;20313;-85
2021/08/12 08:04:38;;;;;;;;;;;;;;;20.78;68.83;98851.63;1728515;82;20737;-85
2021/08/12 08:07:04;;;;;;;;;;;;;;;20.83;68.52;98857.30;1723649;82;20473;-85
2021/08/12 08:09:30;;;;;;;;;;;;;;;20.87;68.24;98851.98;1724636;82;21207;-85
2021/08/12 08:11:56;;;;;;;;;;;;;;;21.01;68.06;98858.48;1724387;82;20240;-85
2021/08/12 08:14:22;;;;;;;;;;;;;;;21.11;67.90;98855.21;1720903;82;20764;-85
2021/08/12 08:16:48;;;;;;;;;;;;;;;21.24;67.66;98857.75;1725119;82;20228;-85
2021/08/12 08:19:14;;;;;;;;;;;;;;;21.33;67.49;98850.59;1723628;82;20788;-85
2021/08/12 08:21:40;;;;;;;;;;;;;;;21.42;67.23;98852.28;1723406;82;20944;-85
2021/08/12 08:24:07;;;;;;;;;;;;;;;21.52;66.96;98854.77;1723619;82;24384;-85
2021/08/12 08:26:33;;;;;;;;;;;;;;;21.58;66.69;98860.77;1721248;82;20211;-85
2021/08/12 08:28:59;;;;;;;;;;;;;;;21.55;66.30;98861.09;1725022;82;24946;-85
2021/08/12 08:31:27;;;;;;;;;;;;;;;21.48;65.90;98860.11;1726074;82;21931;-85
2021/08/12 08:33:53;;;;;;;;;;;;;;;21.53;65.59;98858.61;1723536;82;26210;-85
2021/08/12 08:36:20;;;;;;;;;;;;;;;21.55;65.24;98866.41;1722879;82;24840;-85
2021/08/12 08:38:47;;;;;;;;;;;;;;;21.57;64.91;98860.44;1726043;82;20269;-85
2021/08/12 08:41:13;;;;;;;;;;;;;;;21.62;64.61;98859.44;1725913;82;24514;-85
2021/08/12 08:43:41;;;;;;;;;;;;;;;21.66;64.28;98859.42;1725742;82;22167;-85
2021/08/12 08:46:07;;;;;;;;;;;;;;;21.70;63.96;98860.78;1747574;81;26602;-85
2021/08/12 08:48:34;;;;;;;;;;;;;;;21.70;63.48;98860.78;1723387;82;24624;-85
2021/08/12 08:51:01;;;;;;;;;;;;;;;21.76;63.09;98855.28;1725105;82;20444;-85
2021/08/12 08:53:29;;;;;;;;;;;;;;;21.81;62.76;98855.11;1715990;82;25023;-85
2021/08/12 08:55:59;;;;;;;;;;;;;;;21.83;62.48;98858.92;1712049;83;22719;-86
2021/08/12 08:58:25;;;;;;;;;;;;;;;21.85;62.13;98862.27;1740639;81;25935;-85
2021/08/12 09:00:51;;;;;;;;;;;;;;;21.84;61.77;98869.42;1726920;82;24575;-84
2021/08/12 09:03:17;;;;;;;;;;;;;;;22.00;61.63;98865.93;1741035;82;20206;-85
2021/08/12 09:05:43;;;;;;;;;;;;;;;22.05;61.35;98867.09;1738993;82;24955;-85
2021/08/12 09:08:14;;;;;;;;;;;;;;;22.12;61.15;98872.58;1741215;82;21962;-85
2021/08/12 09:10:42;;;;;;;;;;;;;;;22.18;60.85;98871.08;1742728;82;26178;-84
2021/08/12 09:13:08;;;;;;;;;;;;;;;22.27;60.62;98865.55;1740981;82;24516;-85
2021/08/12 09:15:38;;;;;;;;;;;;;;;22.36;60.42;98861.04;1737709;82;20298;-85
2021/08/12 09:18:07;;;;;;;;;;;;;;;22.45;60.21;98868.84;1741082;82;25025;-85
2021/08/12 09:20:34;;;;;;;;;;;;;;;22.62;60.09;98870.95;1736804;82;21967;-84
2021/08/12 09:23:04;;;;;;;;;;;;;;;22.73;59.92;98865.77;1739976;82;26591;-85
2021/08/12 09:25:42;;;;;;;;;;;;;;;22.82;59.72;98868.21;1740665;82;24396;-85
2021/08/12 09:28:12;;;;;;;;;;;;;;;22.88;59.46;98870.69;1740510;82;20249;-84
2021/08/12 09:30:38;;;;;;;;;;;;;;;22.79;59.08;98865.07;1740718;82;25169;-85
2021/08/12 09:33:04;;;;;;;;;;;;;;;22.72;58.75;98864.09;1739691;82;22013;-85
2021/08/12 09:35:30;;;;;;;;;;;;;;;22.83;58.74;98872.55;1711761;82;20868;-84
2021/08/12 09:38:07;;;;;;;;;;;;;;;22.94;58.60;98877.50;1735027;82;24466;-84
2021/08/12 09:40:33;;;;;;;;;;;;;;;23.06;58.52;98879.78;1734864;82;20194;-84
2021/08/12 09:43:03;;;;;;;;;;;;;;;23.23;58.42;98875.51;1733538;82;25090;-84
2021/08/12 09:45:31;;;;;;;;;;;;;;;23.37;58.33;98876.57;1733510;82;22599;-84
2021/08/12 09:48:12;;;;;;;;;;;;;;;23.52;58.16;98874.81;1732095;82;26201;-84
2021/08/12 09:50:43;;;;;;;;;;;;;;;23.63;57.99;98869.55;1733542;82;25112;-84
2021/08/12 09:53:18;;;;;;;;;;;;;;;23.74;57.84;98872.64;1732234;81;20348;-83
2021/08/12 09:55:44;;;;;;;;;;;;;;;23.73;57.55;98872.81;1733405;82;25593;-84
2021/08/12 09:58:12;;;;;;;;;;;;;;;23.62;57.24;98865.25;1733691;82;21961;-84
2021/08/12 10:00:44;;;;;;;;;;;;;;;23.57;57.04;98870.27;1733829;82;26759;-84
2021/08/12 10:03:20;;;;;;;;;;;;;;;23.64;57.02;98871.22;1734672;82;24441;-84
2021/08/12 10:05:47;;;;;;;;;;;;;;;23.75;56.90;98872.97;1734731;82;20300;-84
2021/08/12 10:08:15;;;;;;;;;;;;;;;23.73;56.68;98870.14;1734549;82;25047;-84
2021/08/12 10:10:41;;;;;;;;;;;;;;;23.67;56.49;98868.21;1732511;81;22076;-84
2021/08/12 10:13:07;;;;;;;;;;;;;;;23.64;56.32;98862.70;1733014;82;25914;-84
2021/08/12 10:15:34;;;;;;;;;;;;;;;23.76;56.23;98866.63;1728897;81;24492;-85
2021/08/12 10:18:01;;;;;;;;;;;;;;;23.88;56.06;98862.17;1733180;82;20214;-84
2021/08/12 10:20:30;;;;;;;;;;;;;;;23.96;55.89;98860.75;1734683;82;24943;-84
2021/08/12 10:22:57;;;;;;;;;;;;;;;23.98;55.71;98859.57;1730679;82;21994;-83
2021/08/12 10:25:24;;;;;;;;;;;;;;;24.04;55.50;98861.52;1730081;82;26145;-84
2021/08/12 10:27:55;;;;;;;;;;;;;;;24.15;55.30;98861.58;1730232;81;24441;-84
2021/08/12 10:30:22;;;;;;;;;;;;;;;24.22;55.04;98861.72;1731456;82;20332;-84
2021/08/12 10:32:50;;;;;;;;;;;;;;;24.23;54.88;98858.83;1713023;82;24372;-84
2021/08/12 10:35:16;;;;;;;;;;;;;;;24.25;54.67;98861.33;1723499;82;22045;-88
2021/08/12 10:37:43;;;;;;;;;;;;;;;24.32;54.53;98866.28;1752197;80;25966;-87
2021/08/12 10:40:11;;;;;;;;;;;;;;;24.42;54.39;98858.80;1751991;80;24518;-87
2021/08/12 10:42:38;;;;;;;;;;;;;;;24.54;54.35;98859.50;1749403;80;20210;-87
2021/08/12 10:45:04;;;;;;;;;;;;;;;24.68;54.23;98863.67;1751267;80;26596;-87
2021/08/12 10:47:39;;;;;;;;;;;;;;;24.73;54.08;98865.28;1752083;81;21933;-87
2021/08/12 10:50:26;;;;;;;;;;;;;;;24.70;53.74;98859.81;1744588;81;26793;-87
2021/08/12 10:53:10;;;;;;;;;;;;;;;24.59;53.34;98864.30;1750515;81;20150;-87
2021/08/12 10:55:36;;;;;;;;;;;;;;;24.41;53.07;98853.96;1747848;80;21055;-87
2021/08/12 10:58:22;;;;;;;;;;;;;;;24.30;53.02;98854.92;1748179;80;24990;-87
2021/08/12 11:00:52;;;;;;;;;;;;;;;24.19;52.98;98858.88;1750907;80;20185;-87
2021/08/12 11:03:36;;;;;;;;;;;;;;;23.99;52.77;98856.39;1751360;80;22556;-87
2021/08/12 11:06:08;;;;;;;;;;;;;;;23.81;52.52;98846.53;1751855;81;20247;-87
2021/08/12 11:08:54;;;;;;;;;;;;;;;23.73;52.46;98853.59;1729915;81;20202;-87
2021/08/12 11:11:29;;;;;;;;;;;;;;;23.67;52.29;98846.83;1724742;83;20270;-87
2021/08/12 11:13:58;;;;;;;;;;;;;;;23.55;52.01;98853.61;1731337;81;20168;-87
2021/08/12 11:16:25;;;;;;;;;;;;;;;23.47;51.72;98849.14;1759567;79;26054;-88
2021/08/12 11:18:53;;;;;;;;;;;;;;;23.43;51.49;98847.81;1725489;81;24486;-88
2021/08/12 11:21:33;;;;;;;;;;;;;;;23.49;51.35;98852.48;1752127;81;20698;-88
2021/08/12 11:24:00;;;;;;;;;;;;;;;23.56;51.33;98854.77;1754279;79;25066;-88
2021/08/12 11:26:28;;;;;;;;;;;;;;;23.56;51.46;98848.09;1725301;81;22254;-85
2021/08/12 11:28:55;;;;;;;;;;;;;;;23.54;51.76;98856.78;1733947;82;26716;-84
2021/08/12 11:31:27;;;;;;;;;;;;;;;23.49;51.96;98848.47;1730908;81;24393;-84
2021/08/12 11:33:57;;;;;;;;;;;;;;;23.57;52.12;98848.39;1695881;82;20273;-84
2021/08/12 11:36:31;;;;;;;;;;;;;;;23.72;52.22;98849.80;1759175;81;25154;-84
2021/08/12 11:38:59;;;;;;;;;;;;;;;23.93;52.38;98848.59;1744619;82;23439;-85
2021/08/12 11:41:26;;;;;;;;;;;;;;;24.09;52.35;98844.42;1741984;81;26745;-85
2021/08/12 11:43:53;;;;;;;;;;;;;;;24.20;52.22;98845.84;1742371;81;24450;-84
2021/08/12 11:46:19;;;;;;;;;;;;;;;24.34;52.15;98843.66;1741874;80;20500;-85
2021/08/12 11:48:46;;;;;;;;;;;;;;;24.42;51.90;98841.41;1732893;80;25056;-85
2021/08/12 11:51:13;;;;;;;;;;;;;;;24.55;51.86;98839.73;1726587;82;22700;-85
2021/08/12 11:53:40;;;;;;;;;;;;;;;24.69;51.85;98838.57;1743143;80;26075;-86
2021/08/12 11:56:10;;;;;;;;;;;;;;;24.81;51.86;98843.27;1715176;82;24532;-85
2021/08/12 11:58:41;;;;;;;;;;;;;;;24.81;51.54;98833.90;1741742;82;20539;-86
2021/08/12 12:01:11;;;;;;;;;;;;;;;24.79;51.27;98839.11;1736116;80;25676;-86
2021/08/12 12:03:40;;;;;;;;;;;;;;;24.83;51.07;98835.03;1743154;81;22989;-85
2021/08/12 12:06:05;;;;;;;;;;;;;;;24.95;50.99;98837.58;1744798;82;25958;-85
2021/08/12 12:08:31;;;;;;;;;;;;;;;25.03;50.92;98833.97;1739179;82;24419;-86
2021/08/12 12:11:11;;;;;;;;;;;;;;;25.06;50.67;98836.25;1739397;81;20443;-86
2021/08/12 12:13:37;;;;;;;;;;;;;;;25.15;50.57;98830.58;1743695;81;25060;-86
2021/08/12 12:16:08;;;;;;;;;;;;;;;25.27;50.51;98828.23;1738623;80;22186;-88
2021/08/12 12:18:40;;;;;;;;;;;;;;;25.30;50.30;98828.70;1739304;81;26098;-88
2021/08/12 12:21:05;;;;;;;;;;;;;;;25.26;49.95;98826.56;1738144;80;24565;-88
2021/08/12 12:23:32;;;;;;;;;;;;;;;25.26;49.72;98828.73;1742513;80;20225;-88
2021/08/12 12:25:58;;;;;;;;;;;;;;;25.32;49.59;98817.26;1743098;81;25181;-88
2021/08/12 12:28:24;;;;;;;;;;;;;;;25.42;49.45;98824.46;1734122;81;22077;-88
2021/08/12 12:30:50;;;;;;;;;;;;;;;25.45;49.21;98819.75;1738269;80;21082;-88
2021/08/12 12:33:24;;;;;;;;;;;;;;;25.50;49.09;98818.16;1735102;81;20277;-88
2021/08/12 12:35:51;;;;;;;;;;;;;;;25.54;48.79;98823.95;1746940;81;20243;-88
2021/08/12 12:38:22;;;;;;;;;;;;;;;25.59;48.56;98823.72;1748530;81;24991;-88
2021/08/12 12:40:48;;;;;;;;;;;;;;;25.62;48.34;98809.11;1742107;81;22087;-88
2021/08/12 12:43:15;;;;;;;;;;;;;;;25.65;48.18;98814.91;1756367;81;26062;-88
2021/08/12 12:45:49;;;;;;;;;;;;;;;25.62;48.04;98825.20;1750456;81;24464;-88
2021/08/12 12:48:16;;;;;;;;;;;;;;;25.45;47.70;98821.09;1749311;81;20469;-88
2021/08/12 12:50:44;;;;;;;;;;;;;;;25.36;47.47;98818.56;1754524;81;25108;-88
2021/08/12 12:53:18;;;;;;;;;;;;;;;25.29;47.31;98818.16;1745316;81;20284;-88
2021/08/12 12:55:51;;;;;;;;;;;;;;;25.22;47.15;98822.11;1750814;81;26172;-88